Time;durP1;ratioP1;P1;durP2;ratioP2;P2;SDS_P1;SDS_P2;PMS_P1;PMS_P2;Temp;Humidity;BMP_temperature;BMP_pressure;BME280_temperature;BME280_humidity;BME280_pressure;Samples;Min_cycle;Max_cycle;Signal;HPM_P1;HPM_P2
2023/09/11 00:02:22;;;;;;;10.05;9.05;;;;;;;20.30;90.10;100868.44;5050132;28;20033;-85
2023/09/11 00:04:51;;;;;;;10.13;8.77;;;;;;;20.26;90.03;100864.22;5031012;28;20049;-83
2023/09/11 00:07:20;;;;;;;11.82;10.57;;;;;;;20.22;90.01;100856.44;5044114;28;20057;-83
2023/09/11 00:09:47;;;;;;;12.40;9.65;;;;;;;20.19;90.44;100854.78;5047886;28;20052;-83
2023/09/11 00:12:13;;;;;;;12.00;9.98;;;;;;;20.20;90.42;100853.00;5033718;28;20540;-84
2023/09/11 00:14:40;;;;;;;10.73;9.70;;;;;;;20.18;91.08;100847.75;5036520;28;20044;-83
2023/09/11 00:17:06;;;;;;;10.75;9.65;;;;;;;20.12;91.47;100843.56;5052440;28;20541;-84
2023/09/11 00:19:33;;;;;;;12.85;10.15;;;;;;;20.09;92.04;100846.38;5065210;28;20469;-84
2023/09/11 00:22:00;;;;;;;10.50;9.38;;;;;;;20.09;91.79;100840.19;5051142;28;20068;-84
2023/09/11 00:24:26;;;;;;;10.45;9.45;;;;;;;20.05;91.72;100836.84;5046653;28;20573;-86
2023/09/11 00:26:53;;;;;;;12.13;9.27;;;;;;;20.03;92.78;100836.03;5030155;28;20397;-83
2023/09/11 00:29:20;;;;;;;13.23;10.23;;;;;;;19.98;92.41;100833.56;5050121;28;20044;-84
2023/09/11 00:31:47;;;;;;;11.43;10.23;;;;;;;19.96;93.58;100835.44;5034284;28;20043;-84
2023/09/11 00:34:13;;;;;;;13.13;9.18;;;;;;;19.93;93.73;100830.28;5073742;28;20059;-83
2023/09/11 00:36:40;;;;;;;12.20;9.35;;;;;;;19.91;93.64;100833.94;5035680;28;20048;-83
2023/09/11 00:39:07;;;;;;;12.60;9.95;;;;;;;19.91;94.07;100833.94;5055068;28;20044;-83
2023/09/11 00:41:33;;;;;;;9.57;8.57;;;;;;;19.88;94.97;100837.59;5054900;28;20055;-84
2023/09/11 00:44:00;;;;;;;11.38;9.52;;;;;;;19.88;96.26;100831.41;5037697;28;20052;-84
2023/09/11 00:46:27;;;;;;;13.32;10.77;;;;;;;19.91;97.50;100823.31;5069693;28;20037;-83
2023/09/11 00:48:56;;;;;;;10.13;9.07;;;;;;;19.88;96.39;100820.78;5051274;28;20055;-83
2023/09/11 00:51:23;;;;;;;10.10;8.98;;;;;;;19.85;96.65;100812.97;5041039;28;20131;-84
2023/09/11 00:53:50;;;;;;;12.52;10.40;;;;;;;19.80;97.86;100819.31;5040455;28;20048;-83
2023/09/11 00:56:17;;;;;;;10.80;9.80;;;;;;;19.77;99.37;100808.81;5044665;28;20048;-84
2023/09/11 00:58:45;;;;;;;12.02;9.70;;;;;;;19.74;99.25;100808.09;5036730;28;20044;-84
2023/09/11 01:01:13;;;;;;;9.57;8.68;;;;;;;19.68;99.56;100803.91;5033150;28;20041;-83
2023/09/11 01:03:40;;;;;;;10.57;9.57;;;;;;;19.64;100.00;100800.53;5051222;28;20105;-83
2023/09/11 01:06:08;;;;;;;10.23;9.25;;;;;;;19.58;100.00;100798.16;5036499;28;20079;-85
2023/09/11 01:08:34;;;;;;;13.65;10.25;;;;;;;19.50;100.00;100792.31;5042584;28;20053;-85
2023/09/11 01:11:01;;;;;;;11.73;10.52;;;;;;;19.41;100.00;100787.41;5033736;28;20057;-84
2023/09/11 01:13:28;;;;;;;11.65;10.45;;;;;;;19.37;100.00;100784.00;5035811;28;20064;-84
2023/09/11 01:16:18;;;;;;;11.52;10.20;;;;;;;19.30;100.00;100788.72;5039378;28;20079;-83
2023/09/11 01:19:11;;;;;;;13.55;10.15;;;;;;;19.28;100.00;100777.34;5052454;28;20051;-83
2023/09/11 01:22:02;;;;;;;14.45;10.93;;;;;;;19.25;100.00;100771.28;5066930;28;20317;-83
2023/09/11 01:24:49;;;;;;;10.15;9.18;;;;;;;19.22;100.00;100774.09;5070413;28;20037;-84
2023/09/11 01:27:38;;;;;;;11.35;10.15;;;;;;;19.17;100.00;100774.28;5050473;28;20048;-85
2023/09/11 01:30:06;;;;;;;11.13;9.85;;;;;;;19.13;100.00;100776.19;5047541;28;20044;-83
2023/09/11 01:32:33;;;;;;;14.05;10.15;;;;;;;19.14;100.00;100771.75;5050099;28;20114;-84
2023/09/11 01:35:00;;;;;;;13.68;11.07;;;;;;;19.07;100.00;100776.44;5036295;28;20331;-85
2023/09/11 01:37:27;;;;;;;10.88;9.50;;;;;;;19.05;100.00;100769.50;5051077;28;20044;-84
2023/09/11 01:39:57;;;;;;;12.10;10.52;;;;;;;18.95;100.00;100777.81;5036106;28;20053;-83
2023/09/11 01:42:35;;;;;;;11.65;9.85;;;;;;;18.88;100.00;100776.34;5054246;28;20040;-85
2023/09/11 01:45:02;;;;;;;14.75;10.65;;;;;;;18.81;100.00;100783.69;5055153;28;20047;-84
2023/09/11 01:47:31;;;;;;;10.88;9.10;;;;;;;18.77;100.00;100783.88;5034571;28;20044;-83
2023/09/11 01:50:01;;;;;;;11.82;10.25;;;;;;;18.78;100.00;100785.59;5050951;28;20036;-85
2023/09/11 01:52:29;;;;;;;14.38;10.15;;;;;;;18.75;100.00;100789.25;5033162;28;20094;-83
2023/09/11 01:54:58;;;;;;;11.02;9.98;;;;;;;18.70;100.00;100787.72;5041880;28;20044;-84
2023/09/11 01:57:28;;;;;;;14.07;10.25;;;;;;;18.68;100.00;100782.44;5043130;28;20040;-82
2023/09/11 01:59:55;;;;;;;12.70;11.15;;;;;;;18.67;100.00;100780.75;5053528;28;20052;-83
2023/09/11 02:02:21;;;;;;;10.98;9.02;;;;;;;18.66;100.00;100784.31;5038848;28;20040;-85
2023/09/11 02:04:49;;;;;;;10.38;9.38;;;;;;;18.62;100.00;100775.63;5048409;28;20060;-85
2023/09/11 02:07:16;;;;;;;10.15;9.07;;;;;;;18.60;100.00;100780.09;5051492;28;20376;-84
2023/09/11 02:09:43;;;;;;;10.75;8.32;;;;;;;18.61;100.00;100775.69;5068557;28;20045;-84
2023/09/11 02:12:09;;;;;;;11.52;10.20;;;;;;;18.55;100.00;100779.47;5054743;28;20507;-85
2023/09/11 02:14:36;;;;;;;10.30;9.30;;;;;;;18.48;100.00;100776.16;5051307;28;20127;-85
2023/09/11 02:17:03;;;;;;;15.07;10.48;;;;;;;18.46;100.00;100772.75;5053442;28;20047;-83
2023/09/11 02:19:31;;;;;;;16.17;10.65;;;;;;;18.44;100.00;100774.56;5036268;28;20045;-83
2023/09/11 02:22:00;;;;;;;11.63;9.55;;;;;;;18.46;100.00;100771.84;5035145;28;20036;-83
2023/09/11 02:24:26;;;;;;;17.75;11.32;;;;;;;18.45;100.00;100773.66;5040109;28;20147;-84
2023/09/11 02:26:56;;;;;;;13.30;10.27;;;;;;;18.38;100.00;100771.31;5048752;28;20441;-85
2023/09/11 02:29:22;;;;;;;13.65;9.23;;;;;;;18.35;100.00;100767.88;5053235;28;20112;-84
2023/09/11 02:31:51;;;;;;;13.13;11.52;;;;;;;18.29;100.00;100767.22;5049708;28;20876;-84
2023/09/11 02:34:20;;;;;;;11.07;10.07;;;;;;;18.23;100.00;100757.75;5033877;28;20045;-83
2023/09/11 02:36:46;;;;;;;14.43;11.20;;;;;;;18.23;100.00;100755.09;5038464;28;20388;-86
2023/09/11 02:39:13;;;;;;;11.70;9.68;;;;;;;18.15;100.00;100758.03;5052431;28;20701;-84
2023/09/11 02:41:40;;;;;;;12.50;10.93;;;;;;;18.00;100.00;100759.50;5050927;28;20045;-84
2023/09/11 02:44:08;;;;;;;13.68;11.40;;;;;;;17.97;100.00;100753.47;5048915;28;20048;-84
2023/09/11 02:46:35;;;;;;;11.38;10.23;;;;;;;17.95;100.00;100756.16;5056473;28;20052;-84
2023/09/11 02:49:01;;;;;;;11.57;10.35;;;;;;;17.99;100.00;100757.78;5029389;28;20056;-83
2023/09/11 02:51:30;;;;;;;10.85;9.82;;;;;;;17.99;100.00;100756.91;5034270;28;20175;-84
2023/09/11 02:53:58;;;;;;;15.68;10.75;;;;;;;18.00;100.00;100755.97;5043358;28;20045;-86
2023/09/11 02:56:25;;;;;;;10.10;9.10;;;;;;;17.99;100.00;100749.81;5047414;28;20041;-82
2023/09/11 02:58:52;;;;;;;12.93;9.70;;;;;;;17.98;100.00;100747.25;5033735;28;20060;-82
2023/09/11 03:01:19;;;;;;;12.48;10.27;;;;;;;17.94;100.00;100748.25;5036215;28;20106;-83
2023/09/11 03:03:46;;;;;;;12.55;11.25;;;;;;;17.86;100.00;100741.44;5046386;28;20051;-84
2023/09/11 03:06:13;;;;;;;14.52;9.85;;;;;;;17.80;100.00;100739.03;5034422;28;20047;-84
2023/09/11 03:08:40;;;;;;;12.57;9.75;;;;;;;17.78;100.00;100745.31;5048304;28;20053;-84
2023/09/11 03:11:11;;;;;;;13.07;11.63;;;;;;;17.74;100.00;100733.09;5033067;28;20045;-85
2023/09/11 03:13:38;;;;;;;12.95;10.85;;;;;;;17.75;100.00;100737.50;5041620;28;20090;-84
2023/09/11 03:16:16;;;;;;;12.00;10.73;;;;;;;17.68;100.00;100734.22;5031430;28;20048;-84
2023/09/11 03:18:46;;;;;;;13.88;11.27;;;;;;;17.67;100.00;100732.47;5052131;28;20079;-83
2023/09/11 03:21:12;;;;;;;12.63;11.15;;;;;;;17.60;100.00;100728.31;5042410;28;20172;-83
2023/09/11 03:23:39;;;;;;;14.48;11.63;;;;;;;17.55;100.00;100731.16;5042690;28;20060;-84
2023/09/11 03:26:16;;;;;;;18.52;12.05;;;;;;;17.52;100.00;100726.84;5043159;28;20082;-84
2023/09/11 03:28:49;;;;;;;12.32;11.00;;;;;;;17.56;100.00;100732.00;5047767;28;20090;-83
2023/09/11 03:31:16;;;;;;;14.07;12.07;;;;;;;17.55;100.00;100727.63;5053799;28;20143;-83
2023/09/11 03:33:43;;;;;;;14.23;11.77;;;;;;;17.52;100.00;100725.94;5036100;28;20040;-82
2023/09/11 03:36:18;;;;;;;18.15;11.75;;;;;;;17.48;100.00;100733.16;5046493;28;20055;-83
2023/09/11 03:38:45;;;;;;;18.38;12.88;;;;;;;17.40;100.00;100727.25;5036753;28;20122;-83
2023/09/11 03:41:12;;;;;;;21.58;12.52;;;;;;;17.39;100.00;100728.22;5034524;28;20107;-83
2023/09/11 03:43:39;;;;;;;14.40;11.75;;;;;;;17.36;100.00;100728.31;5033459;28;20036;-85
2023/09/11 03:46:04;;;;;;;18.23;11.60;;;;;;;17.34;100.00;100722.22;5033454;28;20072;-82
2023/09/11 03:48:31;;;;;;;17.88;11.15;;;;;;;17.31;100.00;100719.66;5050493;28;20488;-83
2023/09/11 03:50:58;;;;;;;14.73;11.07;;;;;;;17.23;100.00;100719.94;5032684;28;20117;-84
2023/09/11 03:53:25;;;;;;;14.80;11.13;;;;;;;17.20;100.00;100717.41;5051219;28;20483;-82
2023/09/11 03:55:52;;;;;;;14.85;12.13;;;;;;;17.19;100.00;100719.22;5050858;28;20036;-82
2023/09/11 03:58:19;;;;;;;15.57;12.10;;;;;;;17.19;100.00;100708.63;5032158;28;20652;-84
2023/09/11 04:00:46;;;;;;;17.25;11.98;;;;;;;17.18;100.00;100709.53;5053708;28;20056;-85
2023/09/11 04:03:15;;;;;;;13.55;10.93;;;;;;;17.21;100.00;100708.56;5034209;28;20116;-84
2023/09/11 04:05:41;;;;;;;17.05;11.27;;;;;;;17.19;100.00;100711.28;5041133;28;20137;-85
2023/09/11 04:08:09;;;;;;;14.80;12.18;;;;;;;17.18;100.00;100712.19;5040087;28;20057;-85
2023/09/11 04:10:36;;;;;;;15.73;11.60;;;;;;;17.16;100.00;100705.22;5045042;28;20049;-84
2023/09/11 04:13:02;;;;;;;13.40;11.07;;;;;;;17.16;100.00;100707.88;5036087;28;20041;-84
2023/09/11 04:15:29;;;;;;;14.07;11.55;;;;;;;17.15;100.00;100703.47;5063639;28;20041;-83
2023/09/11 04:17:57;;;;;;;14.57;12.80;;;;;;;17.15;100.00;100709.63;5056131;28;20048;-84
2023/09/11 04:20:32;;;;;;;18.73;10.82;;;;;;;17.17;100.00;100704.31;5043535;28;20044;-85
2023/09/11 04:23:01;;;;;;;13.30;11.48;;;;;;;17.16;100.00;100702.56;5035930;28;20033;-85
2023/09/11 04:25:29;;;;;;;16.45;11.60;;;;;;;17.15;100.00;100703.47;5064420;28;20418;-85
2023/09/11 04:27:56;;;;;;;20.52;12.00;;;;;;;17.13;100.00;100700.00;5044675;28;20053;-84
2023/09/11 04:30:26;;;;;;;14.57;11.70;;;;;;;17.10;100.00;100702.78;5032065;28;20110;-82
2023/09/11 04:32:53;;;;;;;13.52;12.13;;;;;;;17.10;100.00;100702.78;5031828;28;20502;-84
2023/09/11 04:35:23;;;;;;;20.90;13.02;;;;;;;17.07;100.00;100698.47;5035498;28;20041;-85
2023/09/11 04:37:52;;;;;;;14.13;12.40;;;;;;;17.07;100.00;100694.97;5059791;28;20054;-85
2023/09/11 04:40:18;;;;;;;17.48;14.52;;;;;;;17.05;100.00;100692.34;5051215;28;20041;-83
2023/09/11 04:42:47;;;;;;;15.68;11.63;;;;;;;17.05;100.00;100694.16;5031527;28;20311;-84
2023/09/11 04:45:14;;;;;;;15.95;12.18;;;;;;;17.06;100.00;100690.59;5025629;28;20067;-82
2023/09/11 04:47:43;;;;;;;19.75;13.98;;;;;;;17.03;100.00;100688.91;5042642;28;20041;-83
2023/09/11 04:50:10;;;;;;;16.42;12.43;;;;;;;17.03;100.00;100686.28;5043654;28;20037;-84
2023/09/11 04:52:41;;;;;;;22.52;12.00;;;;;;;17.06;100.00;100688.78;5048289;28;20123;-85
2023/09/11 04:55:09;;;;;;;15.45;11.93;;;;;;;17.06;100.00;100691.44;5046054;28;20044;-84
2023/09/11 04:57:37;;;;;;;13.80;11.73;;;;;;;17.08;100.00;100692.25;5047934;28;20048;-84
2023/09/11 05:00:09;;;;;;;19.00;12.07;;;;;;;17.08;100.00;100689.63;5030170;28;20048;-85
2023/09/11 05:02:36;;;;;;;19.98;13.07;;;;;;;17.07;100.00;100695.81;5027798;28;20068;-84
2023/09/11 05:05:04;;;;;;;15.93;11.32;;;;;;;17.09;100.00;100698.41;5058521;28;20657;-84
2023/09/11 05:07:31;;;;;;;19.23;12.65;;;;;;;17.11;100.00;100694.78;5042351;28;20115;-84
2023/09/11 05:09:59;;;;;;;25.45;13.75;;;;;;;17.11;100.00;100697.44;5027270;28;20127;-85
2023/09/11 05:12:26;;;;;;;17.05;12.98;;;;;;;17.15;100.00;100699.03;5046172;28;20045;-85
2023/09/11 05:14:52;;;;;;;14.63;12.10;;;;;;;17.20;100.00;100699.75;5031989;28;20048;-85
2023/09/11 05:17:20;;;;;;;20.65;13.48;;;;;;;17.22;100.00;100706.78;5026112;28;20045;-86
2023/09/11 05:19:48;;;;;;;20.38;12.90;;;;;;;17.29;100.00;100700.34;5039255;28;20048;-83
2023/09/11 05:22:14;;;;;;;13.32;11.70;;;;;;;17.33;100.00;100697.53;5039660;28;20041;-83
2023/09/11 05:24:41;;;;;;;19.73;12.68;;;;;;;17.35;100.00;100703.63;5048202;28;20053;-84
2023/09/11 05:27:07;;;;;;;12.90;10.48;;;;;;;17.41;100.00;100702.53;5051691;28;20110;-85
2023/09/11 05:29:35;;;;;;;13.88;11.63;;;;;;;17.47;100.00;100697.03;5046443;28;20132;-83
2023/09/11 05:32:02;;;;;;;15.60;11.07;;;;;;;17.49;100.00;100705.75;5057822;28;20560;-82
2023/09/11 05:34:28;;;;;;;16.67;12.30;;;;;;;17.52;100.00;100704.78;5060753;28;20130;-84
2023/09/11 05:36:55;;;;;;;14.90;12.00;;;;;;;17.50;100.00;100696.91;5055847;28;20061;-84
2023/09/11 05:39:22;;;;;;;19.25;12.00;;;;;;;17.51;100.00;100703.94;5027074;28;20045;-84
2023/09/11 05:41:49;;;;;;;14.05;10.70;;;;;;;17.55;100.00;100701.16;5032499;28;20068;-84
2023/09/11 05:44:16;;;;;;;18.05;12.27;;;;;;;17.59;100.00;100701.00;5066476;28;20610;-83
2023/09/11 05:46:42;;;;;;;18.52;12.27;;;;;;;17.64;100.00;100701.69;5046845;28;20055;-83
2023/09/11 05:49:10;;;;;;;13.30;11.52;;;;;;;17.69;100.00;100698.84;5037148;28;20059;-84
2023/09/11 05:51:43;;;;;;;17.50;11.45;;;;;;;17.72;100.00;100696.09;5034043;28;20063;-84
2023/09/11 05:54:11;;;;;;;16.45;11.60;;;;;;;17.77;100.00;100696.78;5063275;28;20041;-85
2023/09/11 05:56:41;;;;;;;14.25;11.45;;;;;;;17.81;100.00;100694.91;5048114;28;20068;-83
2023/09/11 05:59:07;;;;;;;20.63;12.57;;;;;;;17.88;100.00;100701.66;5032976;28;20053;-83
2023/09/11 06:01:34;;;;;;;14.80;11.63;;;;;;;17.96;100.00;100696.09;5050313;28;20099;-83
2023/09/11 06:04:02;;;;;;;15.60;11.20;;;;;;;18.04;100.00;100695.81;5050727;28;20396;-82
2023/09/11 06:06:30;;;;;;;13.93;10.93;;;;;;;18.12;100.00;100691.06;5046365;28;20044;-83
2023/09/11 06:08:57;;;;;;;20.17;12.35;;;;;;;18.22;100.00;100686.28;5065013;28;20828;-83
2023/09/11 06:11:24;;;;;;;17.58;11.85;;;;;;;18.31;100.00;100694.69;5051117;28;20063;-86
2023/09/11 06:13:51;;;;;;;18.85;12.13;;;;;;;18.33;100.00;100694.66;5041493;28;20068;-84
2023/09/11 06:16:18;;;;;;;15.05;10.95;;;;;;;18.45;100.00;100695.94;5051365;28;20156;-83
2023/09/11 06:18:47;;;;;;;14.98;11.48;;;;;;;18.61;100.00;100696.16;5050905;28;20525;-86
2023/09/11 06:21:14;;;;;;;13.80;10.98;;;;;;;18.77;100.00;100691.94;5033330;28;20049;-84
2023/09/11 06:23:41;;;;;;;16.42;11.63;;;;;;;18.93;100.00;100701.91;5040390;28;20191;-83
2023/09/11 06:26:08;;;;;;;14.77;11.52;;;;;;;19.15;100.00;100696.50;5046071;28;20057;-85
2023/09/11 06:28:34;;;;;;;19.30;11.65;;;;;;;20.36;98.16;100702.44;5053164;28;20036;-85
2023/09/11 06:31:01;;;;;;;14.43;11.25;;;;;;;22.20;87.63;100699.97;5027072;28;20057;-83
2023/09/11 06:33:28;;;;;;;15.85;10.50;;;;;;;23.46;81.06;100696.97;5033773;28;20055;-84
2023/09/11 06:35:55;;;;;;;18.00;11.00;;;;;;;24.38;74.34;100697.38;5033095;28;20049;-84
2023/09/11 06:38:22;;;;;;;14.02;9.63;;;;;;;25.06;71.27;100698.19;5034062;28;20165;-84
2023/09/11 06:40:49;;;;;;;11.60;10.40;;;;;;;25.14;67.32;100690.47;5025004;28;20053;-81
2023/09/11 06:43:15;;;;;;;12.13;9.48;;;;;;;24.76;68.40;100689.47;5053144;28;20056;-83
2023/09/11 06:45:42;;;;;;;15.13;9.75;;;;;;;25.93;64.20;100695.66;5049629;28;20044;-83
2023/09/11 06:48:12;;;;;;;16.92;9.70;;;;;;;27.07;57.72;100688.94;5043847;28;20048;-85
2023/09/11 06:50:39;;;;;;;18.23;9.23;;;;;;;27.39;56.66;100688.25;5049166;28;20041;-86
2023/09/11 06:53:10;;;;;;;14.25;8.40;;;;;;;27.83;53.07;100691.88;5047887;28;20072;-82
2023/09/11 06:55:47;;;;;;;16.55;9.38;;;;;;;28.28;52.23;100695.44;5055020;28;20467;-85
2023/09/11 06:58:14;;;;;;;10.57;8.75;;;;;;;28.29;52.51;100687.28;5031712;28;20048;-85
2023/09/11 07:00:41;;;;;;;16.08;9.32;;;;;;;28.72;50.62;100682.78;5030421;28;20049;-84
2023/09/11 07:03:08;;;;;;;9.30;8.23;;;;;;;28.74;50.11;100686.22;5028658;28;20045;-85
2023/09/11 07:05:36;;;;;;;12.50;9.15;;;;;;;29.19;48.27;100690.44;5048122;28;20144;-83
2023/09/11 07:08:03;;;;;;;11.70;7.97;;;;;;;29.19;48.24;100687.75;5032384;28;20060;-86
2023/09/11 07:10:33;;;;;;;10.18;8.93;;;;;;;29.68;46.88;100688.81;5016551;28;20049;-85
2023/09/11 07:13:00;;;;;;;8.15;7.30;;;;;;;29.88;47.03;100693.47;5046999;28;20041;-85
2023/09/11 07:15:27;;;;;;;9.27;7.70;;;;;;;30.23;46.17;100692.09;5045649;28;20506;-82
2023/09/11 07:17:53;;;;;;;12.60;7.82;;;;;;;30.65;43.83;100686.41;5049019;28;20045;-85
2023/09/11 07:20:21;;;;;;;13.32;7.70;;;;;;;30.66;44.59;100688.13;5031633;28;20542;-85
2023/09/11 07:22:48;;;;;;;13.35;7.47;;;;;;;30.92;44.14;100684.81;5033490;28;20045;-83
2023/09/11 07:25:17;;;;;;;9.85;8.15;;;;;;;30.94;43.53;100686.38;5030913;28;20418;-84
2023/09/11 07:27:44;;;;;;;12.38;7.15;;;;;;;31.21;43.01;100686.63;5047145;28;20488;-83
2023/09/11 07:30:11;;;;;;;10.73;7.50;;;;;;;31.12;43.07;100682.94;5045621;28;20049;-85
2023/09/11 07:32:38;;;;;;;13.27;8.30;;;;;;;30.97;42.99;100694.19;5044524;28;20060;-84
2023/09/11 07:35:05;;;;;;;8.68;7.38;;;;;;;30.92;43.72;100682.13;5042430;28;20048;-83
2023/09/11 07:37:32;;;;;;;9.20;7.55;;;;;;;31.71;42.15;100677.28;5047928;28;20082;-82
2023/09/11 07:39:58;;;;;;;12.05;7.50;;;;;;;32.39;41.04;100671.41;5049702;28;20873;-81
2023/09/11 07:42:25;;;;;;;12.10;6.78;;;;;;;31.49;42.13;100674.81;5046025;28;20155;-82
2023/09/11 07:44:58;;;;;;;10.43;6.82;;;;;;;31.96;40.80;100673.84;5038312;28;20048;-85
2023/09/11 07:47:27;;;;;;;;;;;;;;;32.08;40.58;100679.06;5037020;28;20040;-83
2023/09/11 07:50:00;;;;;;;9.00;6.80;;;;;;;32.81;39.53;100678.03;5024923;28;19955;-81
2023/09/11 07:52:28;;;;;;;12.68;6.50;;;;;;;32.80;39.32;100679.91;5051350;28;20430;-83
2023/09/11 07:54:58;;;;;;;10.98;6.55;;;;;;;32.11;40.16;100668.78;5032505;28;20048;-83
2023/09/11 07:57:26;;;;;;;10.52;6.82;;;;;;;33.29;38.91;100678.53;5031781;28;20064;-82
2023/09/11 07:59:53;;;;;;;12.60;7.82;;;;;;;33.05;38.96;100680.06;5017480;28;20130;-81
2023/09/11 08:02:20;;;;;;;16.50;7.25;;;;;;;32.78;38.85;100673.78;5032386;28;20352;-82
2023/09/11 08:04:46;;;;;;;11.45;6.30;;;;;;;33.62;38.09;100675.94;5044962;28;20125;-82
2023/09/11 08:07:16;;;;;;;8.52;5.78;;;;;;;34.67;36.48;100669.16;5033412;28;20152;-80
2023/09/11 08:09:42;;;;;;;13.15;7.57;;;;;;;34.61;35.48;100670.69;5036795;28;20052;-81
2023/09/11 08:12:09;;;;;;;12.82;7.07;;;;;;;34.21;36.33;100664.22;5035157;28;20036;-84
2023/09/11 08:14:36;;;;;;;14.85;6.78;;;;;;;33.89;36.47;100672.13;5035713;28;20049;-84
2023/09/11 08:17:03;;;;;;;12.02;6.18;;;;;;;33.84;36.57;100668.25;5037082;28;20098;-83
2023/09/11 08:19:29;;;;;;;9.48;5.95;;;;;;;34.51;36.07;100665.44;5049590;28;20048;-83
2023/09/11 08:21:56;;;;;;;8.02;5.15;;;;;;;34.74;35.34;100667.44;5052915;28;20056;-84
2023/09/11 08:24:26;;;;;;;9.95;6.25;;;;;;;34.98;34.17;100663.88;5038974;28;20139;-85
2023/09/11 08:26:55;;;;;;;12.93;6.38;;;;;;;34.22;35.88;100669.47;5052372;28;20507;-86
2023/09/11 08:29:22;;;;;;;13.57;7.28;;;;;;;34.06;36.55;100669.47;5052022;28;20059;-84
2023/09/11 08:31:49;;;;;;;6.63;5.43;;;;;;;35.07;34.77;100667.41;5035543;28;20045;-82
2023/09/11 08:34:15;;;;;;;14.27;5.97;;;;;;;34.90;34.49;100675.63;5051982;28;20124;-85
2023/09/11 08:36:42;;;;;;;14.13;6.68;;;;;;;34.24;35.56;100667.44;5058322;28;20074;-84
2023/09/11 08:39:09;;;;;;;13.00;6.20;;;;;;;34.54;34.88;100661.53;5052155;28;20426;-81
2023/09/11 08:41:36;;;;;;;16.13;6.93;;;;;;;34.70;34.38;100666.09;5049310;28;20476;-81
2023/09/11 08:44:03;;;;;;;14.20;5.93;;;;;;;34.37;35.07;100669.69;5068328;28;20067;-82
2023/09/11 08:46:33;;;;;;;13.55;6.07;;;;;;;34.03;36.07;100665.22;5052890;28;20036;-82
2023/09/11 08:49:03;;;;;;;13.98;6.00;;;;;;;34.66;35.80;100668.31;5056770;28;20056;-83
2023/09/11 08:51:50;;;;;;;10.02;5.43;;;;;;;34.79;34.68;100662.34;5054606;28;20037;-83
2023/09/11 08:54:19;;;;;;;14.73;6.45;;;;;;;34.63;35.12;100653.19;5047121;28;20137;-82
2023/09/11 08:56:49;;;;;;;10.60;5.80;;;;;;;35.14;34.74;100651.22;5053500;28;20184;-83
2023/09/11 08:59:23;;;;;;;11.73;6.60;;;;;;;35.53;33.86;100643.09;5038609;28;20049;-83
2023/09/11 09:01:49;;;;;;;10.65;6.15;;;;;;;35.92;33.97;100642.22;5033379;28;20449;-82
2023/09/11 09:04:17;;;;;;;16.50;6.55;;;;;;;35.80;33.70;100632.75;5038928;28;20040;-83
2023/09/11 09:06:47;;;;;;;13.90;6.82;;;;;;;35.50;34.19;100638.03;5048166;28;20040;-84
2023/09/11 09:09:14;;;;;;;12.95;6.45;;;;;;;35.33;34.15;100629.06;5049393;28;20056;-83
2023/09/11 09:11:47;;;;;;;15.00;6.97;;;;;;;35.33;34.12;100637.22;5034971;28;20037;-84
2023/09/11 09:14:22;;;;;;;15.77;6.70;;;;;;;36.00;33.32;100641.31;5030797;28;20049;-84
2023/09/11 09:16:51;;;;;;;15.25;6.18;;;;;;;35.38;33.97;100637.56;5054549;28;20049;-84
2023/09/11 09:19:20;;;;;;;16.50;7.28;;;;;;;35.85;33.80;100633.06;5052281;28;20698;-84
2023/09/11 09:22:10;;;;;;;19.98;6.18;;;;;;;36.53;32.36;100635.97;5034147;28;20495;-84
2023/09/11 09:24:48;;;;;;;12.05;5.63;;;;;;;36.71;32.60;100632.91;5056680;28;20348;-82
2023/09/11 09:27:15;;;;;;;19.08;5.93;;;;;;;36.75;32.40;100631.50;5050988;28;20879;-84
2023/09/11 09:29:41;;;;;;;29.90;8.88;;;;;;;36.82;32.11;100636.16;5031645;28;20048;-83
2023/09/11 09:32:13;;;;;;;16.38;6.72;;;;;;;36.93;31.87;100638.47;5035430;28;20111;-83
2023/09/11 09:34:53;;;;;;;13.17;6.57;;;;;;;35.78;33.17;100635.63;5050621;28;20041;-82
2023/09/11 09:37:21;;;;;;;10.32;5.55;;;;;;;36.35;32.38;100627.25;5041410;28;20041;-82
2023/09/11 09:39:50;;;;;;;14.85;5.32;;;;;;;35.92;33.76;100633.22;5033665;28;20045;-84
2023/09/11 09:42:23;;;;;;;13.63;6.07;;;;;;;35.69;33.86;100628.53;5053506;28;20871;-81
2023/09/11 09:44:53;;;;;;;15.27;6.05;;;;;;;36.04;33.22;100625.47;5062245;28;20500;-83
2023/09/11 09:47:23;;;;;;;14.45;5.82;;;;;;;35.58;33.70;100626.25;5022830;28;20117;-83
2023/09/11 09:49:53;;;;;;;8.25;6.40;;;;;;;36.03;33.42;100621.88;5056305;28;20045;-83
2023/09/11 09:52:23;;;;;;;9.57;5.45;;;;;;;35.64;33.75;100622.78;5034121;28;20041;-82
2023/09/11 09:55:08;;;;;;;17.40;6.00;;;;;;;36.20;32.79;100625.31;5060220;28;20052;-82
2023/09/11 09:57:35;;;;;;;17.67;6.47;;;;;;;35.61;33.51;100615.00;5047718;28;20049;-82
2023/09/11 10:00:03;;;;;;;10.68;5.80;;;;;;;36.82;31.76;100612.50;5033888;28;20044;-84
2023/09/11 10:02:31;;;;;;;13.15;6.55;;;;;;;36.22;32.79;100604.19;5053408;28;20067;-83
2023/09/11 10:05:09;;;;;;;22.45;6.10;;;;;;;36.24;32.49;100612.16;5048303;28;20049;-82
2023/09/11 10:07:45;;;;;;;12.88;5.50;;;;;;;36.63;31.55;100610.31;5042589;28;20065;-82
2023/09/11 10:10:30;;;;;;;14.07;5.40;;;;;;;37.51;30.64;100603.13;5024668;28;20045;-83
2023/09/11 10:13:13;;;;;;;18.70;6.60;;;;;;;37.90;30.44;100601.91;5030171;28;20054;-85
2023/09/11 10:15:41;;;;;;;;;;;;;;;38.44;29.99;100598.81;5009935;28;20045;-81
2023/09/11 10:18:11;;;;;;;15.52;5.75;;;;;;;38.93;29.29;100589.66;5023692;28;20098;-84
2023/09/11 10:20:38;;;;;;;18.52;6.53;;;;;;;37.82;29.46;100593.84;5008053;28;20058;-85
2023/09/11 10:23:07;;;;;;;14.32;5.60;;;;;;;37.49;30.71;100596.19;5013222;28;20065;-84
2023/09/11 10:25:44;;;;;;;13.20;6.07;;;;;;;37.93;29.85;100580.66;5029878;28;20065;-85
2023/09/11 10:28:34;;;;;;;12.70;5.65;;;;;;;38.69;29.24;100586.31;5033838;28;20549;-84
2023/09/11 10:31:28;;;;;;;17.58;5.97;;;;;;;39.01;28.45;100584.00;5030426;28;20053;-83
2023/09/11 10:34:00;;;;;;;14.27;5.82;;;;;;;37.96;29.50;100585.75;5031919;28;20079;-84
2023/09/11 10:36:32;;;;;;;12.52;5.53;;;;;;;37.89;29.38;100588.44;5015587;28;20126;-84
2023/09/11 10:39:04;;;;;;;13.52;5.75;;;;;;;38.99;28.22;100579.78;5041621;28;20049;-85
2023/09/11 10:41:35;;;;;;;13.20;6.28;;;;;;;38.84;28.18;100575.31;5028122;28;20029;-84
2023/09/11 10:44:04;;;;;;;12.02;5.63;;;;;;;38.87;28.29;100574.88;5034966;28;20052;-82
2023/09/11 10:46:39;;;;;;;16.45;5.32;;;;;;;39.31;28.11;100571.94;5019125;28;20049;-86
2023/09/11 10:49:23;;;;;;;15.02;5.80;;;;;;;38.77;28.47;100568.94;5057098;28;20064;-85
2023/09/11 10:51:50;;;;;;;15.88;5.78;;;;;;;39.52;27.78;100569.03;5007685;28;20054;-87
2023/09/11 10:54:25;;;;;;;17.50;6.38;;;;;;;38.59;28.08;100563.97;5011639;28;20163;-85
2023/09/11 10:56:53;;;;;;;20.70;6.05;;;;;;;37.84;29.13;100564.41;5030684;28;20053;-84
2023/09/11 10:59:24;;;;;;;17.05;5.53;;;;;;;37.86;29.22;100561.50;5015296;28;20045;-85
2023/09/11 11:01:52;;;;;;;15.38;5.78;;;;;;;39.34;27.73;100555.09;4995847;28;20575;-85
2023/09/11 11:04:19;;;;;;;12.13;5.20;;;;;;;38.58;28.72;100564.16;5012262;28;20069;-85
2023/09/11 11:06:49;;;;;;;14.85;5.55;;;;;;;38.16;29.24;100564.91;5046190;28;20152;-84
2023/09/11 11:09:35;;;;;;;15.43;5.85;;;;;;;38.38;28.64;100564.88;5029811;28;20432;-81
2023/09/11 11:12:08;;;;;;;12.15;5.68;;;;;;;38.57;28.72;100563.34;5028043;28;20053;-81
2023/09/11 11:14:36;;;;;;;18.67;6.88;;;;;;;39.16;28.03;100551.00;5047596;28;20195;-84
2023/09/11 11:17:11;;;;;;;12.63;5.43;;;;;;;38.76;28.84;100547.25;5029743;28;20048;-83
2023/09/11 11:19:53;;;;;;;10.63;5.88;;;;;;;38.92;28.46;100535.13;5030466;28;20060;-85
2023/09/11 11:22:42;;;;;;;18.55;5.72;;;;;;;40.18;27.40;100540.06;5032208;28;20577;-85